Time;durP1;ratioP1;P1;durP2;ratioP2;P2;SDS_P1;SDS_P2;PMS_P1;PMS_P2;Temp;Humidity;BMP_temperature;BMP_pressure;BME280_temperature;BME280_humidity;BME280_pressure;Samples;Min_cycle;Max_cycle;Signal;HPM_P1;HPM_P2
2022/05/17 00:01:14;;;;;;;4.82;3.10;;;15.80;99.90;;;;;;5108086;28;20027;-77
2022/05/17 00:03:39;;;;;;;5.75;2.83;;;15.80;99.90;;;;;;5115023;28;20353;-76
2022/05/17 00:06:06;;;;;;;8.25;3.17;;;15.70;99.90;;;;;;5115546;28;20521;-77
2022/05/17 00:08:32;;;;;;;4.90;2.50;;;15.70;99.90;;;;;;5114682;28;20035;-77
2022/05/17 00:10:58;;;;;;;4.30;2.70;;;15.70;99.90;;;;;;5112012;28;20084;-76
2022/05/17 00:13:24;;;;;;;4.82;2.40;;;15.70;99.90;;;;;;5114760;28;20039;-75
2022/05/17 00:15:53;;;;;;;5.20;2.65;;;15.60;99.90;;;;;;5115156;28;20022;-77
2022/05/17 00:18:21;;;;;;;6.13;2.50;;;15.60;99.90;;;;;;5114695;28;20066;-77
2022/05/17 00:20:47;;;;;;;4.35;2.65;;;15.50;99.90;;;;;;5108769;28;20031;-77
2022/05/17 00:23:15;;;;;;;2.58;2.35;;;15.40;99.90;;;;;;5114880;28;20084;-76
2022/05/17 00:25:42;;;;;;;4.63;3.03;;;15.40;99.90;;;;;;5114372;28;20031;-76
2022/05/17 00:28:08;;;;;;;4.18;2.83;;;15.40;99.90;;;;;;5115071;28;20016;-76
2022/05/17 00:30:34;;;;;;;4.28;2.70;;;15.30;99.90;;;;;;5112516;28;20072;-76
2022/05/17 00:32:59;;;;;;;6.15;2.78;;;15.30;99.90;;;;;;5114920;28;20031;-76
2022/05/17 00:35:25;;;;;;;3.92;2.30;;;15.30;99.90;;;;;;5114351;28;20460;-75
2022/05/17 00:37:51;;;;;;;3.38;2.55;;;15.30;99.90;;;;;;5114269;28;20030;-76
2022/05/17 00:40:17;;;;;;;5.88;3.65;;;15.30;99.90;;;;;;5114420;28;20118;-76
2022/05/17 00:42:43;;;;;;;4.72;3.10;;;15.30;99.90;;;;;;5113429;28;20088;-76
2022/05/17 00:45:09;;;;;;;3.65;2.78;;;15.20;99.90;;;;;;5107216;28;20036;-78
2022/05/17 00:47:45;;;;;;;6.93;2.60;;;15.30;99.90;;;;;;5103084;28;20074;-76
2022/05/17 00:50:30;;;;;;;5.60;3.22;;;15.30;99.90;;;;;;5105153;28;20063;-76
2022/05/17 00:53:11;;;;;;;4.50;2.67;;;15.20;99.90;;;;;;5101308;28;20035;-77
2022/05/17 00:56:05;;;;;;;4.05;2.50;;;15.20;99.90;;;;;;5106114;28;20040;-78
2022/05/17 00:58:36;;;;;;;6.40;2.72;;;15.20;99.90;;;;;;5103520;28;20036;-77
2022/05/17 01:01:14;;;;;;;4.47;2.63;;;15.10;99.90;;;;;;5103136;28;20044;-77
2022/05/17 01:03:42;;;;;;;4.68;2.53;;;15.10;99.90;;;;;;5102519;28;20105;-78
2022/05/17 01:06:09;;;;;;;4.30;2.72;;;15.00;99.90;;;;;;5102479;28;20511;-78
2022/05/17 01:08:35;;;;;;;6.18;3.03;;;15.00;99.90;;;;;;5104553;28;20080;-78
2022/05/17 01:11:01;;;;;;;5.07;2.95;;;14.90;99.90;;;;;;5100039;28;20028;-76
2022/05/17 01:16:11;;;;;;;4.90;3.13;;;14.90;99.90;;;;;;5103472;28;20521;-78
2022/05/17 01:18:40;;;;;;;10.27;3.58;;;14.90;99.90;;;;;;5101688;28;20099;-77
2022/05/17 01:21:07;;;;;;;8.52;3.72;;;14.80;99.90;;;;;;5105047;28;20019;-78
2022/05/17 01:23:33;;;;;;;5.03;3.30;;;14.80;99.90;;;;;;5103672;28;20035;-77
2022/05/17 01:25:59;;;;;;;6.43;3.20;;;14.70;99.90;;;;;;5103822;28;20035;-77
2022/05/17 01:28:28;;;;;;;2.88;2.40;;;14.60;99.90;;;;;;5103684;28;20469;-76
2022/05/17 01:30:56;;;;;;;3.93;2.63;;;14.60;99.90;;;;;;5105213;28;20453;-77
2022/05/17 01:33:22;;;;;;;4.18;2.85;;;14.50;99.90;;;;;;5105448;28;20032;-77
2022/05/17 01:35:48;;;;;;;4.75;2.85;;;14.50;99.90;;;;;;5103770;28;20450;-78
2022/05/17 01:38:14;;;;;;;5.90;3.35;;;14.50;99.90;;;;;;5109596;28;20028;-77
2022/05/17 01:40:41;;;;;;;3.53;2.70;;;14.40;99.90;;;;;;5104545;28;20048;-79
2022/05/17 01:43:07;;;;;;;6.13;3.22;;;14.40;99.90;;;;;;5086725;28;20426;-78
2022/05/17 01:45:33;;;;;;;4.70;3.35;;;14.30;99.90;;;;;;5102309;28;20459;-78
2022/05/17 01:47:59;;;;;;;3.38;2.63;;;14.30;99.90;;;;;;5099647;28;20031;-76
2022/05/17 01:50:25;;;;;;;5.25;3.08;;;14.20;99.90;;;;;;5102952;28;20465;-76
2022/05/17 01:52:51;;;;;;;4.65;3.28;;;14.20;99.90;;;;;;5102592;28;20036;-76
2022/05/17 01:55:16;;;;;;;5.40;3.95;;;14.10;99.90;;;;;;5102755;28;20036;-77
2022/05/17 01:57:42;;;;;;;4.80;3.33;;;14.10;99.90;;;;;;5103733;28;20098;-77
2022/05/17 02:00:11;;;;;;;5.32;3.30;;;14.10;99.90;;;;;;5104600;28;20093;-77
2022/05/17 02:02:37;;;;;;;4.65;3.00;;;14.10;99.90;;;;;;5103618;28;20019;-77
2022/05/17 02:05:07;;;;;;;3.92;3.05;;;14.00;99.90;;;;;;5103547;28;20027;-76
2022/05/17 02:07:33;;;;;;;4.00;2.42;;;14.00;99.90;;;;;;5103769;28;20042;-78
2022/05/17 02:09:59;;;;;;;3.47;2.85;;;14.00;99.90;;;;;;5087364;28;20408;-78
2022/05/17 02:12:25;;;;;;;5.25;3.25;;;14.00;99.90;;;;;;5104396;28;20036;-78
2022/05/17 02:14:50;;;;;;;4.57;2.72;;;13.90;99.90;;;;;;5100398;28;20032;-78
2022/05/17 02:17:16;;;;;;;4.53;3.08;;;13.90;99.90;;;;;;5104917;28;20064;-76
2022/05/17 02:19:42;;;;;;;5.30;3.33;;;13.80;99.90;;;;;;5102439;28;20024;-76
2022/05/17 02:22:07;;;;;;;3.97;2.80;;;13.80;99.90;;;;;;5106334;28;20035;-76
2022/05/17 02:24:33;;;;;;;6.30;3.17;;;13.80;99.90;;;;;;5104281;28;20036;-75
2022/05/17 02:26:59;;;;;;;6.05;3.15;;;13.70;99.90;;;;;;5100308;28;20039;-76
2022/05/17 02:29:25;;;;;;;5.03;3.10;;;13.70;99.90;;;;;;5097158;28;20507;-74
2022/05/17 02:31:51;;;;;;;5.63;2.92;;;13.60;99.90;;;;;;5107527;28;20030;-76
2022/05/17 02:34:20;;;;;;;3.88;3.03;;;13.60;99.90;;;;;;5112552;28;20039;-76
2022/05/17 02:36:46;;;;;;;4.45;2.92;;;13.60;99.90;;;;;;5111553;28;20251;-76
2022/05/17 02:39:12;;;;;;;3.70;3.00;;;13.50;99.90;;;;;;5112587;28;20520;-77
2022/05/17 02:41:38;;;;;;;4.63;3.20;;;13.50;99.90;;;;;;5110841;28;20048;-75
2022/05/17 02:44:04;;;;;;;4.38;3.30;;;13.50;99.90;;;;;;5111391;28;20358;-76
2022/05/17 02:46:31;;;;;;;6.45;3.65;;;13.50;99.90;;;;;;5111473;28;20040;-76
2022/05/17 02:48:58;;;;;;;5.32;3.28;;;13.40;99.90;;;;;;5112156;28;20036;-76
2022/05/17 02:51:24;;;;;;;3.92;3.40;;;13.40;99.90;;;;;;5111905;28;20032;-76
2022/05/17 02:53:49;;;;;;;4.63;3.20;;;13.30;99.90;;;;;;5111226;28;20039;-76
2022/05/17 02:56:15;;;;;;;5.03;3.40;;;13.30;99.90;;;;;;5112301;28;20024;-76
2022/05/17 02:58:41;;;;;;;5.35;3.78;;;13.30;99.90;;;;;;5110989;28;20532;-76
2022/05/17 03:01:08;;;;;;;6.25;3.65;;;13.30;99.90;;;;;;5110825;28;20407;-76
2022/05/17 03:03:38;;;;;;;10.82;3.78;;;13.30;99.90;;;;;;5111377;28;20063;-77
2022/05/17 03:06:04;;;;;;;4.72;3.33;;;13.20;99.90;;;;;;5111759;28;20031;-77
2022/05/17 03:08:30;;;;;;;4.57;3.30;;;13.30;99.90;;;;;;5111562;28;20035;-79
2022/05/17 03:10:56;;;;;;;4.70;3.92;;;13.20;99.90;;;;;;5112085;28;20365;-79
2022/05/17 03:13:21;;;;;;;5.68;3.92;;;13.20;99.90;;;;;;5111400;28;20024;-80
2022/05/17 03:15:50;;;;;;;6.22;4.00;;;13.20;99.90;;;;;;5111373;28;20116;-79
2022/05/17 03:18:15;;;;;;;5.07;4.05;;;13.20;99.90;;;;;;5111792;28;20031;-78
2022/05/17 03:20:41;;;;;;;5.65;3.83;;;13.10;99.90;;;;;;5110820;28;20023;-78
2022/05/17 03:23:06;;;;;;;5.70;3.95;;;13.10;99.90;;;;;;5112012;28;20056;-77
2022/05/17 03:25:32;;;;;;;6.00;4.22;;;13.10;99.90;;;;;;5110136;28;20121;-76
2022/05/17 03:27:58;;;;;;;8.10;4.15;;;13.10;99.90;;;;;;5111676;28;20110;-76
2022/05/17 03:30:25;;;;;;;6.43;4.68;;;13.10;99.90;;;;;;5112043;28;20028;-76
2022/05/17 03:32:51;;;;;;;5.28;3.88;;;13.10;99.90;;;;;;5109161;28;20047;-76
2022/05/17 03:35:16;;;;;;;5.78;4.07;;;13.00;99.90;;;;;;5108175;28;20032;-77
2022/05/17 03:37:42;;;;;;;6.47;4.63;;;13.00;99.90;;;;;;5110820;28;20023;-79
2022/05/17 03:40:11;;;;;;;4.93;4.40;;;13.00;99.90;;;;;;5111374;28;20040;-80
2022/05/17 03:42:37;;;;;;;7.05;4.65;;;13.00;99.90;;;;;;5111205;28;20035;-79
2022/05/17 03:45:05;;;;;;;5.78;4.57;;;13.00;99.90;;;;;;5111038;28;20084;-79
2022/05/17 03:47:31;;;;;;;4.65;4.25;;;13.00;99.90;;;;;;5111240;28;20028;-76
2022/05/17 03:49:57;;;;;;;4.28;3.80;;;12.90;99.90;;;;;;5111457;28;20084;-79
2022/05/17 03:52:27;;;;;;;6.20;4.38;;;12.90;99.90;;;;;;5112005;28;20032;-78
2022/05/17 03:55:00;;;;;;;5.60;4.13;;;12.90;99.90;;;;;;5101303;28;20139;-78
2022/05/17 03:57:27;;;;;;;5.95;4.07;;;12.90;99.90;;;;;;5093825;28;20031;-79
2022/05/17 03:59:54;;;;;;;5.47;4.88;;;12.90;99.90;;;;;;5110626;28;20112;-79
2022/05/17 04:02:22;;;;;;;5.75;4.22;;;12.90;99.90;;;;;;5112212;28;20024;-77
2022/05/17 04:04:51;;;;;;;6.60;5.10;;;12.90;99.90;;;;;;5112950;28;20035;-78
2022/05/17 04:07:17;;;;;;;6.43;4.63;;;12.90;99.90;;;;;;5115747;28;20603;-78
2022/05/17 04:09:43;;;;;;;5.25;4.25;;;12.90;99.90;;;;;;5114378;28;20050;-76
2022/05/17 04:12:10;;;;;;;7.20;4.53;;;13.00;99.90;;;;;;5114909;28;20476;-76
2022/05/17 04:14:36;;;;;;;6.88;5.03;;;13.00;99.90;;;;;;5107004;28;20035;-76
2022/05/17 04:17:01;;;;;;;5.13;4.60;;;13.00;99.90;;;;;;5115324;28;20031;-76
2022/05/17 04:19:27;;;;;;;6.80;4.78;;;13.00;99.90;;;;;;5114198;28;20031;-77
2022/05/17 04:21:53;;;;;;;5.68;4.53;;;13.10;99.90;;;;;;5114411;28;20055;-77
2022/05/17 04:24:18;;;;;;;6.85;4.78;;;13.10;99.90;;;;;;5115044;28;20042;-77
2022/05/17 04:26:44;;;;;;;6.85;5.07;;;13.20;99.90;;;;;;5112806;28;20110;-77
2022/05/17 04:29:10;;;;;;;6.35;4.78;;;13.20;99.90;;;;;;5115145;28;20027;-77
2022/05/17 04:31:36;;;;;;;5.20;4.18;;;13.30;99.90;;;;;;5115444;28;20094;-76
2022/05/17 04:34:03;;;;;;;5.15;4.30;;;13.40;99.90;;;;;;5115105;28;20502;-75
2022/05/17 04:36:29;;;;;;;5.03;4.57;;;13.40;99.90;;;;;;5114135;28;20074;-75
2022/05/17 04:38:55;;;;;;;5.82;4.30;;;13.50;99.90;;;;;;5113593;28;20031;-76
2022/05/17 04:41:21;;;;;;;6.55;4.70;;;13.60;99.90;;;;;;5114583;28;20547;-75
2022/05/17 04:43:47;;;;;;;6.25;5.57;;;13.60;99.90;;;;;;5113444;28;20111;-76
2022/05/17 04:46:12;;;;;;;7.50;5.15;;;13.70;99.90;;;;;;5114735;28;20352;-79
2022/05/17 04:48:39;;;;;;;5.97;5.03;;;13.80;99.90;;;;;;5113098;28;20032;-83
2022/05/17 04:51:09;;;;;;;10.73;5.90;;;13.90;99.90;;;;;;5109150;28;20031;-81
2022/05/17 04:53:37;;;;;;;8.30;5.10;;;13.90;99.90;;;;;;5113751;28;20080;-76
2022/05/17 04:56:04;;;;;;;9.98;5.20;;;14.10;99.90;;;;;;5114713;28;20123;-82
2022/05/17 04:58:30;;;;;;;8.82;5.78;;;14.10;99.90;;;;;;5096637;28;20032;-81
2022/05/17 05:00:55;;;;;;;7.70;5.65;;;14.20;99.90;;;;;;5113537;28;20057;-82
2022/05/17 05:03:21;;;;;;;7.75;5.90;;;14.30;99.90;;;;;;5113594;28;20027;-77
2022/05/17 05:05:47;;;;;;;7.70;5.65;;;14.40;99.90;;;;;;5112891;28;20023;-79
2022/05/17 05:08:13;;;;;;;8.75;5.90;;;14.50;99.90;;;;;;5114476;28;20026;-75
2022/05/17 05:10:39;;;;;;;9.45;5.80;;;14.60;99.90;;;;;;5113345;28;20040;-77
2022/05/17 05:13:04;;;;;;;8.98;6.50;;;14.60;99.90;;;;;;5114793;28;20031;-79
2022/05/17 05:15:31;;;;;;;6.70;4.72;;;14.70;99.90;;;;;;5113637;28;20529;-80
2022/05/17 05:17:57;;;;;;;8.20;5.55;;;14.80;99.90;;;;;;5113436;28;20032;-80
2022/05/17 05:20:23;;;;;;;5.72;4.78;;;14.80;99.90;;;;;;5113226;28;20034;-76
2022/05/17 05:22:49;;;;;;;6.57;5.10;;;14.90;99.90;;;;;;5113404;28;20023;-76
2022/05/17 05:25:15;;;;;;;11.50;5.88;;;15.00;99.90;;;;;;5113821;28;20035;-76
2022/05/17 05:27:41;;;;;;;12.35;5.95;;;15.00;99.90;;;;;;5106088;28;20106;-76
2022/05/17 05:30:11;;;;;;;8.48;5.28;;;15.10;99.90;;;;;;5116610;28;20379;-76
2022/05/17 05:32:36;;;;;;;7.15;5.28;;;15.20;99.90;;;;;;5111798;28;20034;-76
2022/05/17 05:35:03;;;;;;;7.57;5.20;;;15.20;99.90;;;;;;5113659;28;20032;-73
2022/05/17 05:37:30;;;;;;;7.28;5.18;;;15.40;99.90;;;;;;5110753;28;20016;-75
2022/05/17 05:39:55;;;;;;;9.38;5.43;;;15.50;99.90;;;;;;5092590;28;20475;-75
2022/05/17 05:42:21;;;;;;;8.55;5.05;;;15.60;99.90;;;;;;5093577;28;20028;-74
2022/05/17 05:44:47;;;;;;;8.65;4.97;;;15.80;99.90;;;;;;5092756;28;20066;-75
2022/05/17 05:47:12;;;;;;;8.88;5.20;;;15.90;99.90;;;;;;5093219;28;20032;-75
2022/05/17 05:49:38;;;;;;;11.23;4.65;;;16.00;99.90;;;;;;5095025;28;20134;-78
2022/05/17 05:52:04;;;;;;;6.93;4.65;;;16.10;99.90;;;;;;5113981;28;20095;-77
2022/05/17 05:54:30;;;;;;;8.45;5.00;;;16.20;99.90;;;;;;5095862;28;20063;-76
2022/05/17 05:57:02;;;;;;;7.63;5.38;;;16.30;99.90;;;;;;5092426;28;20051;-76
2022/05/17 05:59:29;;;;;;;9.95;4.60;;;16.50;99.90;;;;;;5093397;28;20020;-77
2022/05/17 06:01:57;;;;;;;8.18;4.63;;;16.60;99.90;;;;;;5097441;28;20024;-73
2022/05/17 06:04:25;;;;;;;5.78;4.57;;;16.80;99.90;;;;;;5113604;28;20429;-75
2022/05/17 06:06:50;;;;;;;6.40;4.20;;;17.00;99.90;;;;;;5112637;28;20032;-74
2022/05/17 06:09:16;;;;;;;6.80;4.63;;;17.10;99.90;;;;;;5113498;28;20483;-76
2022/05/17 06:11:44;;;;;;;9.27;4.82;;;17.20;99.90;;;;;;5113154;28;20388;-74
2022/05/17 06:14:10;;;;;;;9.07;4.10;;;17.30;99.90;;;;;;5097540;28;20028;-73
2022/05/17 06:16:36;;;;;;;8.93;5.20;;;17.40;99.90;;;;;;5113307;28;20376;-75
2022/05/17 06:19:02;;;;;;;10.68;4.93;;;17.50;99.90;;;;;;5112476;28;20464;-74
2022/05/17 06:21:27;;;;;;;10.00;5.03;;;17.60;99.90;;;;;;5096560;28;20039;-71
2022/05/17 06:23:53;;;;;;;9.68;4.40;;;17.60;99.90;;;;;;5093092;28;20424;-73
2022/05/17 06:26:18;;;;;;;7.97;4.35;;;17.70;99.90;;;;;;5096563;28;20460;-74
2022/05/17 06:28:44;;;;;;;7.20;4.40;;;17.90;99.90;;;;;;5094959;28;20035;-73
2022/05/17 06:31:10;;;;;;;10.55;4.85;;;18.00;99.90;;;;;;5104700;28;20055;-73
2022/05/17 06:33:36;;;;;;;9.27;4.47;;;18.10;99.90;;;;;;5106552;28;20024;-73
2022/05/17 06:36:01;;;;;;;8.00;4.50;;;18.20;99.90;;;;;;5112569;28;20020;-73
2022/05/17 06:38:27;;;;;;;13.82;5.88;;;18.20;99.90;;;;;;5112232;28;20019;-72
2022/05/17 06:40:53;;;;;;;7.05;4.50;;;18.40;99.90;;;;;;5111812;28;20061;-72
2022/05/17 06:43:18;;;;;;;8.35;5.00;;;18.40;99.90;;;;;;5112653;28;20035;-73
2022/05/17 06:45:44;;;;;;;7.80;4.68;;;18.50;99.90;;;;;;5112106;28;20451;-73
2022/05/17 06:48:10;;;;;;;16.23;5.07;;;18.70;99.90;;;;;;5111859;28;20038;-71
2022/05/17 06:50:36;;;;;;;10.60;5.13;;;18.70;99.90;;;;;;5112450;28;20035;-72
2022/05/17 06:53:03;;;;;;;6.72;4.43;;;18.80;99.90;;;;;;5111454;28;20031;-72
2022/05/17 06:55:30;;;;;;;11.93;5.10;;;18.90;99.90;;;;;;5107499;28;20027;-72
2022/05/17 06:57:55;;;;;;;14.52;5.40;;;18.90;99.90;;;;;;5111536;28;20031;-72
2022/05/17 07:00:21;;;;;;;9.82;4.72;;;19.00;99.90;;;;;;5110180;28;20020;-73
2022/05/17 07:02:47;;;;;;;8.23;4.20;;;19.00;99.90;;;;;;5108457;28;20504;-72
2022/05/17 07:05:13;;;;;;;9.90;4.75;;;19.10;99.90;;;;;;5111985;28;20108;-72
2022/05/17 07:07:39;;;;;;;11.55;4.80;;;19.20;99.90;;;;;;5111635;28;20074;-72
2022/05/17 07:13:08;;;;;;;5.63;3.88;;;19.40;99.90;;;;;;5105120;28;20504;-73
2022/05/17 07:15:39;;;;;;;7.68;3.95;;;19.40;99.90;;;;;;5092254;28;20038;-73
2022/05/17 07:18:06;;;;;;;6.60;4.10;;;19.60;99.90;;;;;;5100357;28;20024;-73
2022/05/17 07:20:32;;;;;;;8.65;4.40;;;19.70;99.90;;;;;;5111384;28;20547;-73
2022/05/17 07:22:58;;;;;;;8.32;4.55;;;19.80;99.90;;;;;;5109707;28;20463;-73
2022/05/17 07:25:23;;;;;;;8.65;4.47;;;19.90;99.90;;;;;;5111183;28;20031;-72
2022/05/17 07:27:49;;;;;;;6.82;4.97;;;20.00;99.90;;;;;;5111276;28;20023;-72
2022/05/17 07:30:15;;;;;;;7.18;3.65;;;20.10;99.90;;;;;;5111995;28;20492;-72
2022/05/17 07:32:41;;;;;;;10.07;4.85;;;20.30;99.90;;;;;;5111645;28;20112;-72
2022/05/17 07:35:07;;;;;;;6.13;4.20;;;20.50;99.90;;;;;;5093632;28;20031;-72
2022/05/17 07:37:34;;;;;;;7.60;4.18;;;20.70;99.90;;;;;;5108137;28;20070;-72
2022/05/17 07:40:00;;;;;;;6.75;3.70;;;20.80;99.90;;;;;;5110803;28;20055;-72
2022/05/17 07:42:26;;;;;;;10.10;4.57;;;20.90;99.90;;;;;;5112011;28;20073;-72
2022/05/17 07:44:52;;;;;;;5.22;3.63;;;21.10;99.90;;;;;;5114554;28;20110;-73
2022/05/17 07:47:17;;;;;;;5.88;3.50;;;21.20;99.90;;;;;;5097052;28;20036;-72
2022/05/17 07:49:43;;;;;;;10.82;4.07;;;21.20;99.90;;;;;;5094909;28;20024;-72
2022/05/17 07:52:10;;;;;;;5.85;3.20;;;21.30;99.90;;;;;;5095219;28;20081;-72
2022/05/17 07:54:37;;;;;;;4.60;3.45;;;21.30;99.90;;;;;;5114167;28;20028;-72
2022/05/17 07:57:04;;;;;;;6.25;3.03;;;21.40;99.90;;;;;;5113984;28;20027;-72
2022/05/17 07:59:30;;;;;;;7.65;3.92;;;21.50;99.90;;;;;;5095553;28;20030;-73
2022/05/17 08:01:55;;;;;;;10.30;3.80;;;21.70;99.90;;;;;;5076594;28;20028;-73
2022/05/17 08:04:23;;;;;;;8.40;3.42;;;21.80;99.90;;;;;;5095345;28;20073;-72
2022/05/17 08:06:49;;;;;;;9.48;3.65;;;21.80;99.90;;;;;;5094545;28;20024;-71
2022/05/17 08:09:15;;;;;;;11.80;5.05;;;22.00;99.90;;;;;;5095245;28;20457;-71
2022/05/17 08:11:41;;;;;;;8.77;4.18;;;22.10;99.90;;;;;;5095082;28;20028;-72
2022/05/17 08:14:08;;;;;;;7.32;3.88;;;22.20;99.90;;;;;;5094501;28;20066;-72
2022/05/17 08:16:33;;;;;;;8.93;4.07;;;22.20;99.90;;;;;;5103122;28;20153;-71
2022/05/17 08:18:59;;;;;;;4.65;3.25;;;22.20;99.30;;;;;;5114786;28;20485;-72
2022/05/17 08:21:25;;;;;;;8.35;4.20;;;22.20;98.70;;;;;;5115357;28;20024;-72
2022/05/17 08:23:50;;;;;;;8.90;4.07;;;22.30;99.30;;;;;;5114361;28;20031;-72
2022/05/17 08:29:00;;;;;;;7.07;3.20;;;22.40;99.20;;;;;;5114784;28;20031;-72
2022/05/17 08:31:26;;;;;;;6.25;3.58;;;22.60;97.70;;;;;;5115116;28;20032;-72
2022/05/17 08:33:51;;;;;;;7.40;4.28;;;22.70;97.30;;;;;;5094196;28;20032;-72
2022/05/17 08:36:18;;;;;;;7.53;3.70;;;22.70;97.20;;;;;;5094897;28;20103;-72
2022/05/17 08:38:48;;;;;;;8.70;3.10;;;22.70;97.20;;;;;;5094726;28;20043;-72
2022/05/17 08:41:41;;;;;;;10.35;3.40;;;22.90;97.30;;;;;;5094301;28;20040;-72
2022/05/17 08:44:15;;;;;;;14.10;3.92;;;23.00;96.00;;;;;;5094012;28;20161;-72
2022/05/17 08:47:11;;;;;;;7.55;3.95;;;23.10;95.30;;;;;;5100693;28;20032;-73
2022/05/17 08:49:39;;;;;;;8.18;3.90;;;23.10;95.60;;;;;;5107598;28;20032;-72
2022/05/17 08:52:12;;;;;;;9.27;3.40;;;23.20;94.40;;;;;;5093491;28;20055;-72
2022/05/17 08:54:42;;;;;;;6.68;3.25;;;23.30;94.60;;;;;;5112625;28;20384;-72
2022/05/17 08:57:29;;;;;;;5.45;3.03;;;23.40;94.10;;;;;;5113425;28;20092;-72
2022/05/17 08:59:56;;;;;;;10.20;3.50;;;23.60;93.10;;;;;;5114025;28;20034;-73
2022/05/17 09:02:38;;;;;;;7.50;3.60;;;23.60;93.30;;;;;;5113069;28;20041;-72
2022/05/17 09:05:25;;;;;;;7.88;3.05;;;23.70;92.90;;;;;;5113899;28;20535;-72
2022/05/17 09:08:07;;;;;;;13.35;3.15;;;23.70;92.60;;;;;;5113745;28;20027;-72
2022/05/17 09:10:38;;;;;;;7.70;3.75;;;23.70;92.20;;;;;;5111775;28;20466;-72
2022/05/17 09:13:40;;;;;;;7.70;3.13;;;23.70;91.10;;;;;;5093406;28;20209;-72
2022/05/17 09:16:06;;;;;;;9.38;3.75;;;23.80;91.50;;;;;;5096277;28;20579;-72
2022/05/17 09:18:32;;;;;;;9.75;3.53;;;24.00;90.70;;;;;;5093915;28;20028;-72
2022/05/17 09:20:58;;;;;;;6.55;3.47;;;24.20;90.50;;;;;;5098942;28;20069;-72
2022/05/17 09:23:24;;;;;;;10.85;3.17;;;24.30;90.00;;;;;;5113945;28;20106;-72
2022/05/17 09:25:57;;;;;;;4.90;3.38;;;24.40;90.20;;;;;;5112971;28;20038;-72
2022/05/17 09:28:27;;;;;;;6.82;3.40;;;24.60;89.90;;;;;;5114361;28;20024;-72
2022/05/17 09:31:18;;;;;;;5.70;3.65;;;24.80;88.60;;;;;;5096296;28;20028;-72
2022/05/17 09:33:44;;;;;;;6.63;3.15;;;24.90;89.10;;;;;;5095601;28;20035;-72
2022/05/17 09:36:29;;;;;;;7.65;3.50;;;24.90;87.70;;;;;;5107037;28;20094;-72
2022/05/17 09:38:54;;;;;;;9.27;3.10;;;24.90;87.10;;;;;;5106202;28;20447;-72
2022/05/17 09:41:28;;;;;;;5.55;2.83;;;25.00;85.60;;;;;;5109973;28;20134;-72
2022/05/17 09:44:21;;;;;;;9.07;3.50;;;25.10;85.20;;;;;;5110835;28;20108;-72
2022/05/17 09:46:55;;;;;;;7.88;3.30;;;25.10;83.00;;;;;;5109406;28;20032;-72
2022/05/17 09:52:32;;;;;;;5.55;3.22;;;25.10;82.20;;;;;;5095466;28;20074;-72
2022/05/17 09:55:21;;;;;;;9.30;3.53;;;25.20;82.60;;;;;;5112825;28;20031;-72
2022/05/17 09:58:08;;;;;;;9.75;3.20;;;25.20;82.60;;;;;;5104037;28;20055;-73
2022/05/17 10:00:42;;;;;;;10.35;2.78;;;25.20;82.50;;;;;;5092896;28;20492;-72
2022/05/17 10:03:28;;;;;;;5.22;3.28;;;25.30;81.20;;;;;;5092222;28;20288;-72
2022/05/17 10:05:57;;;;;;;9.90;3.53;;;25.40;78.90;;;;;;5091881;28;20064;-72
2022/05/17 10:08:23;;;;;;;6.75;3.53;;;25.20;78.10;;;;;;5092919;28;20078;-72
2022/05/17 10:11:06;;;;;;;7.43;3.15;;;25.00;78.30;;;;;;5092618;28;20067;-72
2022/05/17 10:13:58;;;;;;;6.35;3.10;;;25.00;80.50;;;;;;5092814;28;20028;-72
2022/05/17 10:16:33;;;;;;;5.47;3.00;;;25.20;78.70;;;;;;5087991;28;20036;-72
2022/05/17 10:19:03;;;;;;;7.80;3.45;;;25.30;77.90;;;;;;5091802;28;20226;-73
2022/05/17 10:21:29;;;;;;;7.55;3.80;;;25.40;78.00;;;;;;5092626;28;20032;-72
2022/05/17 10:24:30;;;;;;;6.60;3.05;;;25.60;77.50;;;;;;5108222;28;20453;-73
2022/05/17 10:27:09;;;;;;;5.35;2.75;;;25.80;76.20;;;;;;4994846;28;20042;-72
2022/05/17 10:29:45;;;;;;;4.57;2.93;;;25.90;74.60;;;;;;5080805;28;20032;-72
2022/05/17 10:32:20;;;;;;;4.25;2.80;;;25.90;74.10;;;;;;5091907;28;20028;-72
2022/05/17 10:35:09;;;;;;;4.32;3.00;;;25.80;72.80;;;;;;5102202;28;20030;-72
2022/05/17 10:38:05;;;;;;;5.22;2.80;;;25.70;72.30;;;;;;5112833;28;20055;-73
2022/05/17 10:40:34;;;;;;;11.07;3.60;;;25.70;73.40;;;;;;5094472;28;20044;-73
2022/05/17 10:43:02;;;;;;;4.78;2.83;;;25.70;71.40;;;;;;5107460;28;20099;-73
2022/05/17 10:45:33;;;;;;;11.73;3.25;;;25.80;72.10;;;;;;5092608;28;20063;-72
2022/05/17 10:48:38;;;;;;;5.70;3.05;;;25.90;72.10;;;;;;5092490;28;20066;-73
2022/05/17 10:51:07;;;;;;;7.07;3.08;;;26.00;71.00;;;;;;5080952;28;20035;-73
2022/05/17 10:53:58;;;;;;;8.70;2.90;;;26.10;71.60;;;;;;5092252;28;20082;-73
2022/05/17 10:56:45;;;;;;;6.40;3.03;;;26.30;83.20;;;;;;5104960;28;20016;-73
2022/05/17 10:59:21;;;;;;;6.35;2.83;;;26.40;70.20;;;;;;5111629;28;20554;-73
2022/05/17 11:02:09;;;;;;;5.93;2.92;;;26.70;69.50;;;;;;5112350;28;20038;-73
2022/05/17 11:04:59;;;;;;;7.07;2.80;;;26.80;68.60;;;;;;5092188;28;20032;-73
2022/05/17 11:07:25;;;;;;;4.47;2.45;;;26.70;68.20;;;;;;5092042;28;20035;-73
2022/05/17 11:09:59;;;;;;;7.22;2.60;;;;;;;;;;5091577;28;20381;-73
2022/05/17 11:12:34;;;;;;;6.85;3.00;;;26.70;67.30;;;;;;5092061;28;20025;-73
2022/05/17 11:15:23;;;;;;;4.32;2.22;;;26.50;66.40;;;;;;5100118;28;20038;-73
2022/05/17 11:17:54;;;;;;;3.47;2.20;;;26.50;66.70;;;;;;5096465;28;20062;-74
2022/05/17 11:20:32;;;;;;;5.05;2.72;;;26.60;66.10;;;;;;5091952;28;20031;-74
2022/05/17 11:23:30;;;;;;;4.57;2.00;;;26.80;65.80;;;;;;5102762;28;20070;-74
2022/05/17 11:26:15;;;;;;;9.77;2.70;;;27.40;63.20;;;;;;5110678;28;20035;-74
2022/05/17 11:28:52;;;;;;;3.25;2.30;;;27.40;64.40;;;;;;5111675;28;20544;-74
2022/05/17 11:31:57;;;;;;;5.93;2.53;;;27.60;63.20;;;;;;5091654;28;20040;-73
2022/05/17 11:34:23;;;;;;;8.63;2.90;;;27.20;64.60;;;;;;5088146;28;20047;-72
2022/05/17 11:36:54;;;;;;;6.13;2.30;;;27.20;64.10;;;;;;5091556;28;20405;-71
2022/05/17 11:39:29;;;;;;;4.93;2.45;;;27.30;63.00;;;;;;5106253;28;20036;-73
2022/05/17 11:42:10;;;;;;;4.60;2.30;;;27.20;62.90;;;;;;5111463;28;20511;-73
2022/05/17 11:44:49;;;;;;;3.10;2.40;;;27.10;63.30;;;;;;5111627;28;20499;-72
2022/05/17 11:47:34;;;;;;;3.83;2.35;;;27.10;62.60;;;;;;5111472;28;20028;-73
2022/05/17 11:50:29;;;;;;;9.18;2.53;;;27.00;62.70;;;;;;5108917;28;20036;-73
2022/05/17 11:53:16;;;;;;;4.78;1.98;;;27.20;63.80;;;;;;5082837;28;20047;-73
2022/05/17 11:56:21;;;;;;;11.15;2.22;;;27.40;61.00;;;;;;5091182;28;20029;-73
2022/05/17 11:58:50;;;;;;;2.92;1.63;;;27.60;60.70;;;;;;5094965;28;20028;-73
2022/05/17 12:01:35;;;;;;;6.50;1.70;;;27.90;60.60;;;;;;5081735;28;20430;-73
2022/05/17 12:04:06;;;;;;;8.15;2.10;;;28.20;56.70;;;;;;5110889;28;20039;-73
2022/05/17 12:06:54;;;;;;;4.05;1.63;;;28.20;56.80;;;;;;5111771;28;20032;-73
2022/05/17 12:09:23;;;;;;;4.25;1.75;;;28.40;56.20;;;;;;5109068;28;20495;-72
2022/05/17 12:12:10;;;;;;;3.40;1.90;;;28.30;56.10;;;;;;5111701;28;20141;-72
2022/05/17 12:15:03;;;;;;;2.63;1.90;;;28.30;56.80;;;;;;5093179;28;20537;-72
2022/05/17 12:17:36;;;;;;;3.75;1.67;;;28.30;56.90;;;;;;5045242;28;20070;-72
2022/05/17 12:20:26;;;;;;;10.10;1.85;;;28.10;56.10;;;;;;5090528;28;20030;-72
2022/05/17 12:23:05;;;;;;;3.92;1.90;;;;;;;;;;5090815;28;20028;-72
2022/05/17 12:25:37;;;;;;;2.77;1.40;;;;;;;;;;5091564;28;20031;-72
2022/05/17 12:28:04;;;;;;;4.18;1.70;;;;;;;;;;5072273;28;20066;-73
2022/05/17 12:33:31;;;;;;;2.10;1.40;;;;;;;;;;5069340;28;20484;-73
2022/05/17 12:36:33;;;;;;;1.92;1.50;;;;;;;;;;5114530;28;20019;-73
2022/05/17 12:44:45;;;;;;;13.75;1.92;;;;;;;;;;5094525;28;20043;-73
2022/05/17 12:47:18;;;;;;;2.33;0.90;;;;;;;;;;5093643;28;20381;-73
2022/05/17 12:49:45;;;;;;;1.70;0.90;;;;;;;;;;5096351;28;20020;-73
2022/05/17 12:52:18;;;;;;;3.70;1.30;;;;;;;;;;5101433;28;20027;-72
2022/05/17 12:54:44;;;;;;;2.00;1.25;;;;;;;;;;5102069;28;20043;-73
2022/05/17 12:57:22;;;;;;;2.55;0.88;;;;;;;;;;5093134;28;20055;-73
2022/05/17 12:59:48;;;;;;;4.05;1.05;;;;;;;;;;5097735;28;20030;-73
2022/05/17 13:02:23;;;;;;;3.85;1.05;;;;;;;;;;5098626;28;20079;-73
2022/05/17 13:04:49;;;;;;;2.35;0.90;;;;;;;;;;5076076;28;20032;-74
2022/05/17 13:07:17;;;;;;;5.63;1.20;;;;;;;;;;5094254;28;20099;-73
2022/05/17 13:09:53;;;;;;;1.50;1.40;;;;;;;;;;5100207;28;20147;-72
2022/05/17 13:12:19;;;;;;;6.15;1.13;;;;;;;;;;5114737;28;20062;-73
2022/05/17 13:14:48;;;;;;;9.27;1.27;;;;;;;;;;5097201;28;20058;-73
2022/05/17 13:17:19;;;;;;;2.50;1.40;;;;;;;;;;5097270;28;20009;-72
2022/05/17 13:19:46;;;;;;;2.03;1.25;;;;;;;;;;5076680;28;20030;-72
2022/05/17 13:22:12;;;;;;;2.75;1.30;;;;;;;;;;5093501;28;20070;-76
2022/05/17 13:24:44;;;;;;;2.65;1.20;;;;;;;;;;5093792;28;20063;-74
2022/05/17 13:27:20;;;;;;;2.10;1.30;;;;;;;;;;5075185;28;20496;-75
2022/05/17 13:29:51;;;;;;;1.65;1.20;;;;;;;;;;5076366;28;20473;-74
2022/05/17 13:32:17;;;;;;;3.10;1.05;;;;;;;;;;5093404;28;20057;-72